createdAt,value
2017-05-18T00:02:27.966Z,71.40
2017-05-18T00:04:56.911Z,71.80
2017-05-18T00:07:25.907Z,71.90
2017-05-18T00:09:54.107Z,71.80
2017-05-18T00:12:22.311Z,71.80
2017-05-18T00:14:50.532Z,72.60
2017-05-18T00:17:18.740Z,72.10
2017-05-18T00:19:47.695Z,72.50
2017-05-18T00:22:15.899Z,72.20
2017-05-18T00:24:44.115Z,72.40
2017-05-18T00:27:12.318Z,72.10
2017-05-18T00:29:40.527Z,72.40
2017-05-18T00:32:08.733Z,72.90
2017-05-18T00:34:36.943Z,73.80
2017-05-18T00:37:05.166Z,74.40
2017-05-18T00:39:34.123Z,73.80
2017-05-18T00:42:02.340Z,72.90
2017-05-18T00:44:31.279Z,73.60
2017-05-18T00:46:59.497Z,72.80
2017-05-18T00:49:29.331Z,72.20
2017-05-18T00:51:57.555Z,72.20
2017-05-18T00:54:25.754Z,71.70
2017-05-18T00:56:54.708Z,72.40
2017-05-18T00:59:22.928Z,71.70
2017-05-18T01:01:51.870Z,72.20
2017-05-18T01:04:20.086Z,72.40
2017-05-18T01:06:49.037Z,72.30
2017-05-18T01:09:17.235Z,72.60
2017-05-18T01:11:45.439Z,72.50
2017-05-18T01:14:14.400Z,72.70
2017-05-18T01:16:42.603Z,72.80
2017-05-18T01:19:11.555Z,73.20
2017-05-18T01:21:39.784Z,73.60
2017-05-18T01:24:07.983Z,73.90
2017-05-18T01:26:36.190Z,74.00
2017-05-18T01:29:04.391Z,74.10
2017-05-18T01:31:33.348Z,74.00
2017-05-18T01:34:01.553Z,74.10
2017-05-18T01:36:30.511Z,73.90
2017-05-18T01:38:58.724Z,74.00
2017-05-18T01:41:27.672Z,73.60
2017-05-18T01:43:55.891Z,73.70
2017-05-18T01:46:24.835Z,73.90
2017-05-18T01:48:53.337Z,74.20
2017-05-18T01:51:21.528Z,74.20
2017-05-18T01:53:49.727Z,73.70
2017-05-18T01:56:17.947Z,74.40
2017-05-18T01:58:46.154Z,73.80
2017-05-18T02:01:14.363Z,73.90
2017-05-18T02:03:42.571Z,75.10
2017-05-18T02:06:10.782Z,75.90
2017-05-18T02:08:39.732Z,76.20
2017-05-18T02:11:07.935Z,75.90
2017-05-18T02:13:36.159Z,76.30
2017-05-18T02:16:04.370Z,77.20
2017-05-18T02:18:32.583Z,77.00
2017-05-18T02:21:01.519Z,77.10
2017-05-18T02:23:29.739Z,77.50
2017-05-18T02:25:58.686Z,77.30
2017-05-18T02:28:26.879Z,77.30
2017-05-18T02:31:00.039Z,78.00
2017-05-18T02:33:28.232Z,77.90
2017-05-18T02:35:56.444Z,78.50
2017-05-18T02:38:25.402Z,78.30
2017-05-18T02:40:53.624Z,77.60
2017-05-18T02:43:21.844Z,78.30
2017-05-18T02:45:50.050Z,78.50
2017-05-18T02:48:18.268Z,78.70
2017-05-18T02:50:46.474Z,79.00
2017-05-18T02:53:14.679Z,79.40
2017-05-18T02:55:43.623Z,79.10
2017-05-18T02:58:11.850Z,79.60
2017-05-18T03:00:40.056Z,79.50
2017-05-18T03:03:08.260Z,79.90
2017-05-18T03:05:36.475Z,80.30
2017-05-18T03:08:05.423Z,80.10
2017-05-18T03:10:33.635Z,80.00
2017-05-18T03:13:02.584Z,80.10
2017-05-18T03:15:30.799Z,80.10
2017-05-18T03:17:59.767Z,81.20
2017-05-18T03:20:27.971Z,81.50
2017-05-18T03:22:56.932Z,80.90
2017-05-18T03:25:25.132Z,81.00
2017-05-18T03:27:53.348Z,81.10
2017-05-18T03:30:24.795Z,80.90
2017-05-18T03:32:53.028Z,81.50
2017-05-18T03:35:21.232Z,81.40
2017-05-18T03:37:49.436Z,81.30
2017-05-18T03:40:17.648Z,81.60
2017-05-18T03:42:45.857Z,81.20
2017-05-18T03:45:14.071Z,82.10
2017-05-18T03:47:42.276Z,82.20
2017-05-18T03:50:10.482Z,81.70
2017-05-18T03:52:38.699Z,81.30
2017-05-18T03:55:06.907Z,81.50
2017-05-18T03:57:36.172Z,81.80
2017-05-18T04:00:04.372Z,81.20
2017-05-18T04:02:32.603Z,81.80
2017-05-18T04:05:00.815Z,81.70
2017-05-18T04:07:29.015Z,81.60
2017-05-18T04:09:57.964Z,81.60
2017-05-18T04:12:26.170Z,81.80
2017-05-18T04:14:54.385Z,82.60
2017-05-18T04:17:22.587Z,82.60
2017-05-18T04:19:50.803Z,82.10
2017-05-18T04:22:19.752Z,81.40
2017-05-18T04:24:47.977Z,81.10
2017-05-18T04:27:16.919Z,80.50
2017-05-18T04:29:45.119Z,80.60
2017-05-18T04:32:13.332Z,79.90
2017-05-18T04:34:41.538Z,79.60
2017-05-18T04:37:09.768Z,80.30
2017-05-18T04:39:38.719Z,80.10
2017-05-18T04:42:06.932Z,79.80
2017-05-18T04:44:35.875Z,79.30
2017-05-18T04:47:04.079Z,78.10
2017-05-18T04:49:32.299Z,76.80
2017-05-18T04:52:00.515Z,74.50
2017-05-18T04:54:28.735Z,74.30
2017-05-18T04:56:56.948Z,74.20
2017-05-18T04:59:25.168Z,74.00
2017-05-18T05:01:54.107Z,73.80
2017-05-18T05:04:22.317Z,72.70
2017-05-18T05:06:51.284Z,72.90
2017-05-18T05:09:19.483Z,70.60
2017-05-18T05:11:47.702Z,71.20
2017-05-18T05:14:15.907Z,70.20
2017-05-18T05:16:44.120Z,68.60
2017-05-18T05:19:13.065Z,66.30
2017-05-18T05:21:41.267Z,65.70
2017-05-18T05:24:09.484Z,65.70
2017-05-18T05:26:37.688Z,65.40
2017-05-18T05:29:05.899Z,63.90
2017-05-18T05:31:34.101Z,63.10
2017-05-18T05:34:03.069Z,62.50
2017-05-18T05:36:31.275Z,61.50
2017-05-18T05:39:00.719Z,61.60
2017-05-18T05:41:28.943Z,61.10
2017-05-18T05:43:57.882Z,59.80
2017-05-18T05:46:26.100Z,58.50
2017-05-18T05:48:55.041Z,57.70
2017-05-18T05:51:23.283Z,56.50
2017-05-18T05:53:51.497Z,56.70
2017-05-18T05:56:19.700Z,57.10
2017-05-18T05:58:47.915Z,56.50
2017-05-18T06:01:16.123Z,55.50
2017-05-18T06:03:44.336Z,56.10
2017-05-18T06:06:13.285Z,55.60
2017-05-18T06:08:41.504Z,55.20
2017-05-18T06:11:10.461Z,55.20
2017-05-18T06:13:38.672Z,55.70
2017-05-18T06:16:07.627Z,54.30
2017-05-18T06:18:35.829Z,53.70
2017-05-18T06:21:04.793Z,54.20
2017-05-18T06:23:32.996Z,54.30
2017-05-18T06:26:01.224Z,54.10
2017-05-18T06:28:29.447Z,52.20
2017-05-18T06:30:57.647Z,50.10
2017-05-18T06:33:25.868Z,49.50
2017-05-18T06:35:54.071Z,49.40
2017-05-18T06:38:22.289Z,49.00
2017-05-18T06:40:50.487Z,47.60
2017-05-18T06:43:18.708Z,45.30
2017-05-18T06:45:47.661Z,46.20
2017-05-18T06:48:15.876Z,43.60
2017-05-18T06:50:44.831Z,44.20
2017-05-18T06:53:13.032Z,44.50
2017-05-18T06:55:41.984Z,44.90
2017-05-18T06:58:10.203Z,44.20
2017-05-18T07:00:39.168Z,45.20
2017-05-18T07:03:07.369Z,43.50
2017-05-18T07:05:36.317Z,43.00
2017-05-18T07:08:04.534Z,42.80
2017-05-18T07:10:33.487Z,42.50
2017-05-18T07:13:01.711Z,42.40
2017-05-18T07:15:30.672Z,41.00
2017-05-18T07:17:58.908Z,41.10
2017-05-18T07:20:27.120Z,43.00
2017-05-18T07:22:55.323Z,42.30
2017-05-18T07:25:24.284Z,39.10
2017-05-18T07:27:52.497Z,38.30
2017-05-18T07:30:21.458Z,35.60
2017-05-18T07:32:49.659Z,35.50
2017-05-18T07:35:18.603Z,35.10
2017-05-18T07:37:46.820Z,35.10
2017-05-18T07:40:15.767Z,35.40
2017-05-18T07:42:43.984Z,35.80
2017-05-18T07:45:12.936Z,35.60
2017-05-18T07:47:41.160Z,35.40
2017-05-18T07:50:10.111Z,34.20
2017-05-18T07:52:38.343Z,34.60
2017-05-18T07:55:06.551Z,35.00
2017-05-18T07:57:34.772Z,35.30
2017-05-18T08:00:03.737Z,36.10
2017-05-18T08:02:31.951Z,36.70
2017-05-18T08:05:00.230Z,36.30
2017-05-18T08:07:28.391Z,34.70
2017-05-18T08:09:57.347Z,35.60
2017-05-18T08:12:25.551Z,34.10
2017-05-18T08:14:54.499Z,33.10
2017-05-18T08:17:22.715Z,33.70
2017-05-18T08:19:51.668Z,35.00
2017-05-18T08:22:19.891Z,35.20
2017-05-18T08:24:48.839Z,35.50
2017-05-18T08:27:17.043Z,35.50
2017-05-18T08:29:45.999Z,36.10
2017-05-18T08:32:14.227Z,35.60
2017-05-18T08:34:43.171Z,35.50
2017-05-18T08:37:11.387Z,35.20
2017-05-18T08:39:40.338Z,35.10
2017-05-18T08:42:08.543Z,34.60
2017-05-18T08:44:36.751Z,33.80
2017-05-18T08:47:04.959Z,33.00
2017-05-18T08:49:33.186Z,32.10
2017-05-18T08:52:02.159Z,31.50
2017-05-18T08:54:31.120Z,31.80
2017-05-18T08:56:59.331Z,32.00
2017-05-18T08:59:28.305Z,32.00
2017-05-18T09:01:56.515Z,30.90
2017-05-18T09:04:24.728Z,30.20
2017-05-18T09:06:52.935Z,30.70
2017-05-18T09:09:21.148Z,30.90
2017-05-18T09:11:49.351Z,31.80
2017-05-18T09:14:17.555Z,31.90
2017-05-18T09:16:45.792Z,31.40
2017-05-18T09:19:14.001Z,32.60
2017-05-18T09:21:42.224Z,31.00
2017-05-18T09:24:10.431Z,30.40
2017-05-18T09:26:38.647Z,30.20
2017-05-18T09:29:07.599Z,29.40
2017-05-18T09:31:35.836Z,29.90
2017-05-18T09:34:04.048Z,31.20
2017-05-18T09:36:32.253Z,32.90
2017-05-18T09:39:00.462Z,34.30
2017-05-18T09:41:28.672Z,35.60
2017-05-18T09:43:56.887Z,36.80
2017-05-18T09:46:25.836Z,37.90
2017-05-18T09:48:54.055Z,38.40
2017-05-18T09:51:23.007Z,39.20
2017-05-18T09:53:51.217Z,40.00
2017-05-18T09:56:20.175Z,40.10
2017-05-18T09:58:48.380Z,40.60
2017-05-18T10:01:16.588Z,41.80
2017-05-18T10:03:44.802Z,42.60
2017-05-18T10:06:13.020Z,43.80
2017-05-18T10:08:41.971Z,44.70
2017-05-18T10:11:10.199Z,45.60
2017-05-18T10:13:38.415Z,45.50
2017-05-18T10:16:06.623Z,46.30
2017-05-18T10:18:35.600Z,46.70
2017-05-18T10:21:03.799Z,46.60
2017-05-18T10:23:33.056Z,48.60
2017-05-18T10:26:01.259Z,49.90
2017-05-18T10:28:29.475Z,53.70
2017-05-18T10:30:57.675Z,53.30
2017-05-18T10:33:25.892Z,54.80
2017-05-18T10:35:54.837Z,57.90
2017-05-18T10:38:23.055Z,56.90
2017-05-18T10:40:52.011Z,59.90
2017-05-18T10:43:20.227Z,64.20
2017-05-18T10:45:49.188Z,64.00
2017-05-18T10:48:17.393Z,68.50
2017-05-18T10:50:46.357Z,69.10
2017-05-18T10:53:14.565Z,72.80
2017-05-18T10:55:43.536Z,73.00
2017-05-18T10:58:11.736Z,73.30
2017-05-18T11:00:39.950Z,72.50
2017-05-18T11:03:08.172Z,72.10
2017-05-18T11:05:40.699Z,73.40
2017-05-18T11:08:08.923Z,72.10
2017-05-18T11:10:37.876Z,71.30
2017-05-18T11:13:06.114Z,70.50
2017-05-18T11:15:34.326Z,70.30
2017-05-18T11:18:02.543Z,68.60
2017-05-18T11:20:31.507Z,69.80
2017-05-18T11:22:59.707Z,69.20
2017-05-18T11:25:28.679Z,68.50
2017-05-18T11:27:56.892Z,70.70
2017-05-18T11:30:25.099Z,70.30
2017-05-18T11:32:53.319Z,71.20
2017-05-18T11:35:21.525Z,74.10
2017-05-18T11:37:49.744Z,73.10
2017-05-18T11:40:17.947Z,74.30
2017-05-18T11:42:46.915Z,73.50
2017-05-18T11:45:15.132Z,72.50
2017-05-18T11:47:44.072Z,74.40
2017-05-18T11:50:12.291Z,77.70
2017-05-18T11:52:41.229Z,79.10
2017-05-18T11:55:09.442Z,78.00
2017-05-18T11:57:37.644Z,78.80
2017-05-18T12:00:05.897Z,76.90
2017-05-18T12:02:34.845Z,77.90
2017-05-18T12:05:03.053Z,76.20
2017-05-18T12:07:31.260Z,74.10
2017-05-18T12:09:59.468Z,73.80
2017-05-18T12:12:27.679Z,75.10
2017-05-18T12:14:55.888Z,77.60
2017-05-18T12:17:24.106Z,78.00
2017-05-18T12:19:52.307Z,78.60
2017-05-18T12:22:20.503Z,75.80
2017-05-18T12:24:49.463Z,73.20
2017-05-18T12:27:17.672Z,75.40
2017-05-18T12:29:45.895Z,77.20
2017-05-18T12:32:14.104Z,76.50
2017-05-18T12:34:43.058Z,74.70
2017-05-18T12:37:11.263Z,72.70
2017-05-18T12:39:39.509Z,73.20
2017-05-18T12:42:07.716Z,73.20
2017-05-18T12:44:35.914Z,72.00
2017-05-18T12:47:04.132Z,68.70
2017-05-18T12:49:32.330Z,70.30
2017-05-18T12:52:00.535Z,68.00
2017-05-18T12:54:28.740Z,66.00
2017-05-18T12:56:56.985Z,66.90
2017-05-18T12:59:25.204Z,66.00
2017-05-18T13:01:53.411Z,63.20
2017-05-18T13:04:21.627Z,62.90
2017-05-18T13:06:50.736Z,64.60
2017-05-18T13:09:18.952Z,66.30
2017-05-18T13:11:47.159Z,65.20
2017-05-18T13:14:15.390Z,63.90
2017-05-18T13:16:43.594Z,64.70
2017-05-18T13:19:12.545Z,59.70
2017-05-18T13:21:40.774Z,61.80
2017-05-18T13:24:08.989Z,60.80
2017-05-18T13:26:37.203Z,60.50
2017-05-18T13:29:06.156Z,60.80
2017-05-18T13:31:34.434Z,61.20
2017-05-18T13:34:02.607Z,59.40
2017-05-18T13:36:30.820Z,59.90
2017-05-18T13:38:59.779Z,63.50
2017-05-18T13:41:27.978Z,67.20
2017-05-18T13:43:56.944Z,77.00
2017-05-18T13:46:25.151Z,79.70
2017-05-18T13:48:54.117Z,81.10
2017-05-18T13:51:22.323Z,82.60
2017-05-18T13:53:51.277Z,82.60
2017-05-18T13:56:19.479Z,83.90
2017-05-18T13:58:47.696Z,83.30
2017-05-18T14:01:15.895Z,83.90
2017-05-18T14:03:44.131Z,83.20
2017-05-18T14:06:12.352Z,82.80
2017-05-18T14:08:40.569Z,83.90
2017-05-18T14:11:09.511Z,83.40
2017-05-18T14:13:37.727Z,83.40
2017-05-18T14:16:06.674Z,82.80
2017-05-18T14:18:34.880Z,81.60
2017-05-18T14:21:03.104Z,81.10
2017-05-18T14:23:31.316Z,82.70
2017-05-18T14:25:59.536Z,82.00
2017-05-18T14:28:27.740Z,81.70
2017-05-18T14:30:55.956Z,80.60
2017-05-18T14:33:24.160Z,78.90
2017-05-18T14:35:52.376Z,77.20
2017-05-18T14:38:20.575Z,76.20
2017-05-18T14:40:48.796Z,65.90
2017-05-18T14:43:17.021Z,64.20
2017-05-18T14:45:45.239Z,62.40
2017-05-18T14:48:13.446Z,68.40
2017-05-18T14:50:41.659Z,68.90
2017-05-18T14:53:09.864Z,69.30
2017-05-18T14:55:38.080Z,72.40
2017-05-18T14:58:06.279Z,73.60
2017-05-18T15:00:34.503Z,68.90
2017-05-18T15:03:02.707Z,67.50
2017-05-18T15:05:30.939Z,70.20
2017-05-18T15:07:59.147Z,69.00
2017-05-18T15:10:27.351Z,68.90
2017-05-18T15:12:55.572Z,64.50
2017-05-18T15:15:23.772Z,65.10
2017-05-18T15:17:51.980Z,66.80
2017-05-18T15:20:20.936Z,63.30
2017-05-18T15:22:49.160Z,63.20
2017-05-18T15:25:18.104Z,63.40
2017-05-18T15:27:46.324Z,63.40
2017-05-18T15:30:15.271Z,63.70
2017-05-18T15:32:43.499Z,63.30
2017-05-18T15:35:11.723Z,65.40
2017-05-18T15:37:39.952Z,63.30
2017-05-18T15:40:08.155Z,64.20
2017-05-18T15:42:36.380Z,61.80
2017-05-18T15:45:05.338Z,63.90
2017-05-18T15:47:33.558Z,59.40
2017-05-18T15:50:02.509Z,58.30
2017-05-18T15:52:30.723Z,57.30
2017-05-18T15:54:59.668Z,57.20
2017-05-18T15:57:27.874Z,57.50
2017-05-18T15:59:56.071Z,57.80
2017-05-18T16:02:25.046Z,58.20
2017-05-18T16:04:53.254Z,57.50
2017-05-18T16:07:21.460Z,58.30
2017-05-18T16:09:49.679Z,59.70
2017-05-18T16:12:18.628Z,58.70
2017-05-18T16:14:46.831Z,57.40
2017-05-18T16:17:15.039Z,57.50
2017-05-18T16:19:43.252Z,57.70
2017-05-18T16:22:11.447Z,57.90
2017-05-18T16:24:39.669Z,57.50
2017-05-18T16:27:07.876Z,58.00
2017-05-18T16:29:36.100Z,58.40
2017-05-18T16:32:05.051Z,58.60
2017-05-18T16:34:33.264Z,57.90
2017-05-18T16:37:01.492Z,59.10
2017-05-18T16:39:29.709Z,60.20
2017-05-18T16:41:58.661Z,61.00
2017-05-18T16:44:26.858Z,61.00
2017-05-18T16:46:55.079Z,62.50
2017-05-18T16:49:23.280Z,62.00
2017-05-18T16:51:51.497Z,61.70
2017-05-18T16:54:20.441Z,62.60
2017-05-18T16:56:48.655Z,64.20
2017-05-18T16:59:16.861Z,64.90
2017-05-18T17:01:45.084Z,64.70
2017-05-18T17:04:13.284Z,64.20
2017-05-18T17:06:42.240Z,64.10
2017-05-18T17:09:10.448Z,64.70
2017-05-18T17:11:39.396Z,63.70
2017-05-18T17:14:07.605Z,64.50
2017-05-18T17:16:35.815Z,65.50
2017-05-18T17:19:04.020Z,63.00
2017-05-18T17:21:32.224Z,61.80
2017-05-18T17:24:00.428Z,61.80
2017-05-18T17:26:29.392Z,60.00
2017-05-18T17:28:57.603Z,59.60
2017-05-18T17:31:25.832Z,61.00
2017-05-18T17:33:54.031Z,60.90
2017-05-18T17:36:22.261Z,60.90
2017-05-18T17:38:50.470Z,59.80
2017-05-18T17:41:18.667Z,62.00
2017-05-18T17:43:47.617Z,58.80
2017-05-18T17:46:15.831Z,59.60
2017-05-18T17:48:44.791Z,58.80
2017-05-18T17:51:12.995Z,58.30
2017-05-18T17:53:41.978Z,57.10
2017-05-18T17:56:10.184Z,58.20
2017-05-18T17:58:38.393Z,57.80
2017-05-18T18:01:06.603Z,57.70
2017-05-18T18:03:35.559Z,57.20
2017-05-18T18:06:03.777Z,57.40
2017-05-18T18:08:32.725Z,57.00
2017-05-18T18:11:00.959Z,57.20
2017-05-18T18:13:28.391Z,57.10
2017-05-18T18:16:15.480Z,58.10
2017-05-18T18:18:44.472Z,59.30
2017-05-18T18:21:12.675Z,59.50
2017-05-18T18:23:41.634Z,60.40
2017-05-18T18:26:09.844Z,60.30
2017-05-18T18:28:38.783Z,63.30
2017-05-18T18:31:06.989Z,63.60
2017-05-18T18:33:35.188Z,64.40
2017-05-18T18:36:17.462Z,63.20
2017-05-18T18:38:45.673Z,64.00
2017-05-18T18:41:14.633Z,65.40
2017-05-18T18:43:42.855Z,64.60
2017-05-18T18:46:11.072Z,64.90
2017-05-18T18:48:39.280Z,67.60
2017-05-18T18:51:08.236Z,66.30
2017-05-18T18:53:36.463Z,67.40
2017-05-18T18:56:04.666Z,68.60
2017-05-18T18:58:32.871Z,69.80
2017-05-18T19:01:01.084Z,69.80
2017-05-18T19:03:30.027Z,70.90
2017-05-18T19:05:58.233Z,71.30
2017-05-18T19:08:27.192Z,72.80
2017-05-18T19:10:55.423Z,76.00
2017-05-18T19:13:25.032Z,76.60
2017-05-18T19:15:53.968Z,75.30
2017-05-18T19:18:22.167Z,76.70
2017-05-18T19:20:50.421Z,76.40
2017-05-18T19:23:18.622Z,76.00
2017-05-18T19:25:46.835Z,75.60
2017-05-18T19:28:15.055Z,75.30
2017-05-18T19:30:43.252Z,74.80
2017-05-18T19:33:12.201Z,75.10
2017-05-18T19:35:40.413Z,75.10
2017-05-18T19:38:08.612Z,74.00
2017-05-18T19:40:36.811Z,73.80
2017-05-18T19:43:05.016Z,73.10
2017-05-18T19:45:33.220Z,72.80
2017-05-18T19:48:02.186Z,72.20
2017-05-18T19:50:30.386Z,72.70
2017-05-18T19:52:59.336Z,72.70
2017-05-18T19:55:27.545Z,72.30
2017-05-18T19:57:55.761Z,73.50
2017-05-18T20:00:23.969Z,73.30
2017-05-18T20:02:52.169Z,73.80
2017-05-18T20:05:20.366Z,74.80
2017-05-18T20:07:48.574Z,75.50
2017-05-18T20:10:16.771Z,76.20
2017-05-18T20:12:44.971Z,76.60
2017-05-18T20:15:13.928Z,76.40
2017-05-18T20:17:42.135Z,76.40
2017-05-18T20:20:11.228Z,76.80
2017-05-18T20:25:08.980Z,77.80
2017-05-18T20:27:37.196Z,77.60
2017-05-18T20:30:30.965Z,77.50
2017-05-18T20:32:59.922Z,77.00
2017-05-18T20:35:28.129Z,77.40
2017-05-18T20:37:57.099Z,78.20
2017-05-18T20:40:25.312Z,79.80
2017-05-18T20:42:53.540Z,80.40
2017-05-18T20:45:21.748Z,79.90
2017-05-18T20:47:50.704Z,81.00
2017-05-18T20:50:18.931Z,81.40
2017-05-18T20:52:47.153Z,81.00
2017-05-18T20:55:15.363Z,80.90
2017-05-18T20:57:44.316Z,81.00
2017-05-18T21:00:12.540Z,81.30
2017-05-18T21:02:41.491Z,80.60
2017-05-18T21:05:09.732Z,80.50
2017-05-18T21:07:37.940Z,80.90
2017-05-18T21:10:06.135Z,81.20
2017-05-18T21:12:34.347Z,80.70
2017-05-18T21:15:02.548Z,80.80
2017-05-18T21:17:30.756Z,80.70
2017-05-18T21:19:58.964Z,80.70
2017-05-18T21:22:27.181Z,80.80
2017-05-18T21:24:55.387Z,80.90
2017-05-18T21:27:23.602Z,81.70
2017-05-18T21:30:02.413Z,81.90
2017-05-18T21:32:30.627Z,82.60
2017-05-18T21:34:58.847Z,82.60
2017-05-18T21:37:27.792Z,82.80
2017-05-18T21:39:56.017Z,82.80
2017-05-18T21:42:24.960Z,81.60
2017-05-18T21:44:53.183Z,81.80
2017-05-18T21:47:22.139Z,81.70
2017-05-18T21:49:50.343Z,81.50
2017-05-18T21:52:20.075Z,82.30
2017-05-18T21:54:48.287Z,83.40
2017-05-18T21:57:16.519Z,84.80
2017-05-18T21:59:44.737Z,86.40
2017-05-18T22:02:12.931Z,87.40
2017-05-18T22:04:41.145Z,86.90
2017-05-18T22:07:09.364Z,87.00
2017-05-18T22:09:37.586Z,87.40
2017-05-18T22:12:06.543Z,87.70
2017-05-18T22:14:34.756Z,88.20
2017-05-18T22:17:03.697Z,88.10
2017-05-18T22:19:32.712Z,86.80
2017-05-18T22:22:00.923Z,86.10
2017-05-18T22:24:29.120Z,86.00
2017-05-18T22:26:57.331Z,85.60
2017-05-18T22:29:25.543Z,85.90
2017-05-18T22:31:53.764Z,86.50
2017-05-18T22:34:21.977Z,86.50
2017-05-18T22:36:50.203Z,86.80
2017-05-18T22:39:18.415Z,86.70
2017-05-18T22:41:46.620Z,86.10
2017-05-18T22:44:14.840Z,86.30
2017-05-18T22:46:43.043Z,85.90
2017-05-18T22:49:12.010Z,86.20
2017-05-18T22:51:40.200Z,86.50
2017-05-18T22:54:08.419Z,87.20
2017-05-18T22:56:36.623Z,87.00
2017-05-18T22:59:04.839Z,87.10
2017-05-18T23:01:33.799Z,86.20
2017-05-18T23:04:02.004Z,85.50
2017-05-18T23:06:30.964Z,85.10
2017-05-18T23:08:59.182Z,85.30
2017-05-18T23:11:28.148Z,85.50
2017-05-18T23:13:56.352Z,85.70
2017-05-18T23:16:25.480Z,84.80
2017-05-18T23:18:53.704Z,85.40
2017-05-18T23:21:21.908Z,85.10
2017-05-18T23:23:50.134Z,84.40
2017-05-18T23:26:18.339Z,84.40
2017-05-18T23:28:59.615Z,84.70
2017-05-18T23:31:28.566Z,84.40
2017-05-18T23:33:56.774Z,84.30
2017-05-18T23:36:24.991Z,84.40
2017-05-18T23:38:53.203Z,84.20
2017-05-18T23:41:21.427Z,84.70
2017-05-18T23:43:49.632Z,85.80
2017-05-18T23:46:17.843Z,86.60
2017-05-18T23:48:46.044Z,86.90
2017-05-18T23:51:14.253Z,86.50
2017-05-18T23:53:42.464Z,86.40
2017-05-18T23:56:24.244Z,87.40
2017-05-18T23:58:52.456Z,87.90
